createdAt,value
2019-02-10T00:00:43.956Z,15.03
2019-02-10T00:03:14.126Z,14.37
2019-02-10T00:05:44.329Z,11.47
2019-02-10T00:08:14.855Z,9.97
2019-02-10T00:10:46.945Z,9.83
2019-02-10T00:13:35.102Z,9.60
2019-02-10T00:16:13.922Z,4.77
2019-02-10T00:18:44.542Z,7.83
2019-02-10T00:21:14.831Z,10.50
2019-02-10T00:23:49.039Z,8.30
2019-02-10T00:26:22.018Z,7.93
2019-02-10T00:28:52.793Z,11.83
2019-02-10T00:31:24.118Z,7.13
2019-02-10T00:33:54.543Z,9.33
2019-02-10T00:36:32.694Z,12.87
2019-02-10T00:38:56.642Z,8.07
2019-02-10T00:41:28.378Z,12.43
2019-02-10T00:43:59.041Z,8.33
2019-02-10T00:46:29.454Z,8.20
2019-02-10T00:48:59.847Z,6.83
2019-02-10T00:51:30.670Z,13.67
2019-02-10T00:54:01.481Z,12.97
2019-02-10T00:56:31.827Z,6.50
2019-02-10T00:59:02.283Z,8.73
2019-02-10T01:01:33.074Z,4.60
2019-02-10T01:04:03.555Z,9.03
2019-02-10T01:06:41.314Z,10.37
2019-02-10T01:09:07.842Z,12.77
2019-02-10T01:11:39.937Z,8.67
2019-02-10T01:14:10.841Z,9.57
2019-02-10T01:16:41.396Z,9.87
2019-02-10T01:19:12.393Z,8.83
2019-02-10T01:21:47.351Z,9.90
2019-02-10T01:24:17.642Z,8.63
2019-02-10T01:26:49.328Z,10.77
2019-02-10T01:29:19.717Z,8.23
2019-02-10T01:31:49.939Z,12.40
2019-02-10T01:34:20.239Z,16.57
2019-02-10T01:36:51.456Z,11.13
2019-02-10T01:39:23.075Z,10.40
2019-02-10T01:41:53.361Z,3.13
2019-02-10T01:44:24.329Z,13.27
2019-02-10T01:46:54.500Z,9.37
2019-02-10T01:49:27.516Z,16.87
2019-02-10T01:51:58.245Z,10.73
2019-02-10T01:54:28.534Z,8.90
2019-02-10T01:57:14.459Z,10.10
2019-02-10T01:59:39.051Z,14.03
2019-02-10T02:02:09.453Z,6.63
2019-02-10T02:04:39.945Z,7.40
2019-02-10T02:07:10.604Z,9.03
2019-02-10T02:09:40.933Z,16.47
2019-02-10T02:12:11.507Z,9.37
2019-02-10T02:14:44.886Z,9.80
2019-02-10T02:17:15.111Z,18.00
2019-02-10T02:19:45.366Z,6.20
2019-02-10T02:22:15.582Z,6.20
2019-02-10T02:24:45.806Z,14.67
2019-02-10T02:27:16.142Z,8.67
2019-02-10T02:29:46.686Z,4.90
2019-02-10T02:32:16.876Z,10.53
2019-02-10T02:34:47.289Z,5.90
2019-02-10T02:37:18.115Z,12.03
2019-02-10T02:39:48.538Z,7.10
2019-02-10T02:42:19.040Z,14.47
2019-02-10T02:44:52.385Z,6.90
2019-02-10T02:47:23.122Z,6.80
2019-02-10T02:49:53.392Z,10.97
2019-02-10T02:52:24.050Z,17.37
2019-02-10T02:54:54.248Z,17.07
2019-02-10T02:57:25.770Z,6.10
2019-02-10T02:59:56.149Z,8.30
2019-02-10T03:02:26.403Z,14.63
2019-02-10T03:04:56.554Z,13.53
2019-02-10T03:07:30.295Z,13.40
2019-02-10T03:10:02.637Z,10.03
2019-02-10T03:12:32.685Z,9.17
2019-02-10T03:15:03.555Z,8.83
2019-02-10T03:17:33.761Z,10.23
2019-02-10T03:20:04.235Z,5.50
2019-02-10T03:22:36.289Z,11.10
2019-02-10T03:25:07.138Z,7.73
2019-02-10T03:27:37.669Z,10.03
2019-02-10T03:30:09.976Z,9.87
2019-02-10T03:32:40.134Z,6.40
2019-02-10T03:35:10.890Z,10.57
2019-02-10T03:37:41.482Z,13.80
2019-02-10T03:40:12.026Z,7.60
2019-02-10T03:42:42.422Z,12.13
2019-02-10T03:45:13.233Z,7.47
2019-02-10T03:47:43.638Z,11.70
2019-02-10T03:50:13.977Z,6.30
2019-02-10T03:52:45.084Z,9.60
2019-02-10T03:55:15.520Z,12.57
2019-02-10T03:57:45.932Z,9.47
2019-02-10T04:00:16.370Z,3.37
2019-02-10T04:02:46.981Z,13.03
2019-02-10T04:05:17.218Z,8.27
2019-02-10T04:07:49.997Z,9.63
2019-02-10T04:10:20.237Z,10.53
2019-02-10T04:12:53.431Z,7.50
2019-02-10T04:15:23.803Z,10.37
2019-02-10T04:17:54.387Z,20.53
2019-02-10T04:20:24.979Z,13.23
2019-02-10T04:22:55.339Z,13.37
2019-02-10T04:25:28.487Z,7.53
2019-02-10T04:27:58.929Z,11.50
2019-02-10T04:30:31.785Z,13.10
2019-02-10T04:33:04.411Z,12.37
2019-02-10T04:35:36.381Z,13.57
2019-02-10T04:38:09.935Z,4.57
2019-02-10T04:40:40.209Z,11.37
2019-02-10T04:43:10.385Z,4.13
2019-02-10T04:45:41.385Z,19.40
2019-02-10T04:48:11.803Z,6.93
2019-02-10T04:50:42.025Z,9.23
2019-02-10T04:53:12.741Z,8.00
2019-02-10T04:55:43.178Z,9.53
2019-02-10T04:58:13.413Z,5.10
2019-02-10T05:00:44.765Z,4.93
2019-02-10T05:03:14.837Z,14.47
2019-02-10T05:05:48.001Z,4.23
2019-02-10T05:08:18.449Z,8.93
2019-02-10T05:10:48.632Z,17.07
2019-02-10T05:13:19.069Z,7.83
2019-02-10T05:15:50.069Z,4.93
2019-02-10T05:18:22.693Z,8.60
2019-02-10T05:20:52.985Z,9.70
2019-02-10T05:23:23.882Z,6.47
2019-02-10T05:25:54.563Z,4.60
2019-02-10T05:28:24.832Z,4.93
2019-02-10T05:30:55.503Z,5.53
2019-02-10T05:33:25.773Z,10.33
2019-02-10T05:35:56.070Z,5.20
2019-02-10T05:38:27.003Z,9.90
2019-02-10T05:40:57.121Z,8.63
2019-02-10T05:43:27.369Z,5.53
2019-02-10T05:45:59.511Z,4.37
2019-02-10T05:48:29.845Z,2.83
2019-02-10T05:51:00.213Z,4.83
2019-02-10T05:53:30.943Z,2.87
2019-02-10T05:56:01.688Z,9.70
2019-02-10T05:58:32.740Z,6.20
2019-02-10T06:01:39.132Z,7.30
2019-02-10T06:04:09.582Z,3.90
2019-02-10T06:06:39.931Z,5.97
2019-02-10T06:09:10.161Z,4.10
2019-02-10T06:11:40.397Z,2.10
2019-02-10T06:14:10.670Z,5.10
2019-02-10T06:16:40.997Z,6.73
2019-02-10T06:19:11.186Z,4.13
2019-02-10T06:21:41.646Z,5.93
2019-02-10T06:24:15.475Z,5.43
2019-02-10T06:26:49.201Z,3.40
2019-02-10T06:29:20.126Z,3.07
2019-02-10T06:31:51.105Z,2.93
2019-02-10T06:34:21.281Z,6.40
2019-02-10T06:36:53.057Z,7.60
2019-02-10T06:39:23.554Z,5.20
2019-02-10T06:41:53.748Z,4.77
2019-02-10T06:44:24.231Z,5.67
2019-02-10T06:46:54.797Z,5.60
2019-02-10T06:49:25.116Z,3.30
2019-02-10T06:51:55.410Z,3.00
2019-02-10T06:54:25.557Z,4.00
2019-02-10T06:57:00.877Z,3.10
2019-02-10T06:59:40.281Z,7.10
2019-02-10T07:02:29.616Z,6.73
2019-02-10T07:04:59.877Z,2.40
2019-02-10T07:07:30.529Z,3.67
2019-02-10T07:10:03.867Z,3.20
2019-02-10T07:12:59.629Z,4.13
2019-02-10T07:16:05.469Z,1.63
2019-02-10T07:19:11.515Z,1.90
2019-02-10T07:21:45.857Z,3.60
2019-02-10T07:24:44.118Z,4.77
2019-02-10T07:27:32.289Z,2.83
2019-02-10T07:30:39.366Z,3.47
2019-02-10T07:33:19.150Z,1.73
2019-02-10T07:36:24.126Z,1.80
2019-02-10T07:39:23.829Z,1.67
2019-02-10T07:42:38.839Z,3.00
2019-02-10T07:45:36.314Z,1.77
2019-02-10T07:48:37.309Z,1.87
2019-02-10T07:51:51.665Z,4.30
2019-02-10T07:54:43.216Z,2.33
2019-02-10T07:57:33.289Z,4.30
2019-02-10T08:00:21.368Z,3.37
2019-02-10T08:03:15.132Z,2.80
2019-02-10T08:06:23.404Z,2.07
2019-02-10T08:09:42.774Z,2.30
2019-02-10T08:12:57.253Z,1.67
2019-02-10T08:15:46.265Z,2.90
2019-02-10T08:19:09.299Z,1.70
2019-02-10T08:22:06.780Z,1.43
2019-02-10T08:24:44.457Z,2.47
2019-02-10T08:28:05.965Z,2.43
2019-02-10T08:31:08.574Z,3.50
2019-02-10T08:33:47.320Z,2.60
2019-02-10T08:37:16.295Z,1.80
2019-02-10T08:40:36.545Z,1.97
2019-02-10T08:44:01.029Z,2.10
2019-02-10T08:46:53.231Z,1.70
2019-02-10T08:50:09.076Z,1.67
2019-02-10T08:52:51.951Z,1.83
2019-02-10T08:55:22.513Z,2.67
2019-02-10T08:57:52.598Z,1.63
2019-02-10T09:00:23.238Z,1.63
2019-02-10T09:02:54.709Z,2.27
2019-02-10T09:05:26.666Z,5.33
2019-02-10T09:07:56.965Z,2.10
2019-02-10T09:10:28.513Z,3.47
2019-02-10T09:12:58.867Z,1.80
2019-02-10T09:15:29.586Z,1.70
2019-02-10T09:18:02.737Z,1.90
2019-02-10T09:20:33.037Z,4.50
2019-02-10T09:23:03.638Z,1.87
2019-02-10T09:25:35.622Z,2.40
2019-02-10T09:28:06.158Z,3.30
2019-02-10T09:30:36.299Z,2.87
2019-02-10T09:33:09.009Z,1.90
2019-02-10T09:35:39.153Z,3.40
2019-02-10T09:38:11.424Z,2.10
2019-02-10T09:40:41.881Z,3.33
2019-02-10T09:43:12.004Z,1.83
2019-02-10T09:45:42.370Z,2.17
2019-02-10T09:48:17.001Z,2.67
2019-02-10T09:50:47.549Z,2.50
2019-02-10T09:53:26.151Z,2.50
2019-02-10T09:55:57.108Z,2.70
2019-02-10T09:58:27.278Z,1.93
2019-02-10T10:00:59.285Z,3.80
2019-02-10T10:03:29.717Z,2.90
2019-02-10T10:05:59.903Z,2.33
2019-02-10T20:42:21.513Z,5.87
2019-02-10T20:45:12.367Z,5.90
2019-02-10T20:47:57.862Z,5.60
2019-02-10T20:50:47.153Z,9.53
2019-02-10T20:53:41.219Z,5.67
2019-02-10T20:56:25.225Z,7.20
2019-02-10T20:59:16.488Z,7.57
2019-02-10T21:02:10.433Z,8.57
2019-02-10T21:05:13.258Z,6.10
2019-02-10T21:08:03.453Z,6.90
2019-02-10T21:11:07.448Z,7.97
2019-02-10T21:14:20.947Z,11.87
2019-02-10T21:17:11.398Z,8.33
2019-02-10T21:20:12.864Z,18.73
2019-02-10T21:23:09.426Z,12.60
2019-02-10T21:26:00.074Z,13.90
2019-02-10T21:29:06.675Z,9.67
2019-02-10T21:32:04.477Z,8.20
2019-02-10T21:34:53.545Z,10.80
2019-02-10T21:37:42.161Z,11.60
2019-02-10T21:40:23.151Z,8.80
2019-02-10T21:43:00.359Z,4.97
2019-02-10T21:45:50.142Z,6.00
2019-02-10T21:48:37.001Z,5.40
2019-02-10T21:51:08.613Z,3.40
2019-02-10T21:53:40.627Z,3.93
2019-02-10T21:56:14.688Z,4.37
2019-02-10T21:58:46.789Z,4.90
2019-02-10T22:01:20.002Z,7.73
2019-02-10T22:03:56.672Z,7.50
2019-02-10T22:06:28.538Z,9.50
2019-02-10T22:09:00.615Z,6.23
2019-02-10T22:11:35.446Z,7.20
2019-02-10T22:14:06.984Z,5.57
2019-02-10T22:16:45.252Z,7.13
2019-02-10T22:19:16.915Z,8.50
2019-02-10T22:21:55.842Z,13.13
2019-02-10T22:24:28.993Z,9.50
2019-02-10T22:27:00.645Z,8.27
2019-02-10T22:29:32.362Z,8.13
2019-02-10T22:32:03.874Z,9.53
2019-02-10T22:34:38.501Z,10.10
2019-02-10T22:37:11.999Z,9.70
2019-02-10T22:39:46.653Z,10.03
2019-02-10T22:42:18.318Z,10.73
2019-02-10T22:44:50.958Z,8.60
2019-02-10T22:47:22.413Z,10.73
2019-02-10T22:49:54.642Z,18.97
2019-02-10T22:52:26.080Z,18.83
2019-02-10T22:55:00.458Z,17.90
2019-02-10T22:57:33.247Z,11.00
2019-02-10T23:00:14.925Z,17.70
2019-02-10T23:02:46.968Z,20.77
2019-02-10T23:05:18.369Z,14.40
2019-02-10T23:07:57.557Z,18.17
2019-02-10T23:10:31.978Z,12.33
2019-02-10T23:13:05.704Z,17.27
2019-02-10T23:15:40.921Z,20.10
2019-02-10T23:18:15.731Z,8.70
2019-02-10T23:20:53.946Z,8.80
2019-02-10T23:23:29.398Z,7.40
2019-02-10T23:26:00.879Z,10.20
2019-02-10T23:28:36.993Z,7.47
2019-02-10T23:31:11.799Z,10.13
2019-02-10T23:33:43.943Z,16.93
2019-02-10T23:36:19.013Z,8.20
2019-02-10T23:38:51.154Z,13.63
2019-02-10T23:41:24.865Z,15.80
2019-02-10T23:44:02.395Z,13.20
2019-02-10T23:46:35.753Z,18.00
2019-02-10T23:49:08.042Z,5.90
2019-02-10T23:51:42.330Z,8.27
2019-02-10T23:54:14.289Z,16.33
2019-02-10T23:56:48.958Z,13.43
2019-02-10T23:59:26.243Z,11.77
